»·PEaware :: N717TS KTSP-KSNA

N717TS :: KTSP-KSNA

FLIGHT INFORMATION

Flight Status: Arrived
Operator: Privately registered:
United States
More flights under this callsign
Pilot: Ty S. (2873)
Aircraft: SOCATA TBM-900
(TBM9)
More flights by this aircraft type
Origin: KTSP Tehachapi Mun
United States
Destination: KSNA John Wayne-Orange Co
United States
More flights between these airports :: More routes between these airports
Route: SOLED BERRI V459 SLI
File this flight plan on PilotEdge
Remarks:
Altitude:
(Current/Filed)
11,000ft
Speed:
(Current/Filed)
280kts
Departed: 30-Dec-19 06:54 PM
Arrived: 30-Dec-19 07:29 PM
Distance/Time
Traveled:
92nm/0:35
Distance/Time
To Go:
Arrived

Flight Plot

Page will automatically refresh every two minutes.


Map Options




Map Legend


Flown Route
Filed Route
Departure Airport
Arrival Airport
Navaid (VOR, NDB)
Fix

Horizontal Profiles

Position Reports

Time Latitude Longitude Heading Altitude Ground
Speed
30-Dec-19 18:41 35.134604 -118.440316 70 4003ft 0kts
30-Dec-19 18:42 35.134604 -118.440316 70 4003ft 0kts
30-Dec-19 18:43 35.134604 -118.440316 70 4003ft 0kts
30-Dec-19 18:44 35.134604 -118.440316 70 4003ft 0kts
30-Dec-19 18:45 35.134604 -118.440316 70 4003ft 0kts
30-Dec-19 18:46 35.134604 -118.440316 70 4003ft 0kts
30-Dec-19 18:47 35.134604 -118.440316 70 4003ft 0kts
30-Dec-19 18:48 35.134604 -118.440316 70 4003ft 0kts
30-Dec-19 18:49 35.134604 -118.440316 70 4003ft 0kts
30-Dec-19 18:50 35.134834 -118.439726 320 4003ft 7kts
30-Dec-19 18:51 35.136666 -118.442998 304 4003ft 13kts
30-Dec-19 18:52 35.137871 -118.444941 37 4003ft 0kts
30-Dec-19 18:53 35.135879 -118.440799 124 4003ft 86kts
30-Dec-19 18:54 35.117529 -118.404344 121 5426ft 145kts
30-Dec-19 18:55 35.080941 -118.377926 166 7074ft 176kts
30-Dec-19 18:56 35.031539 -118.360365 160 8642ft 191kts
30-Dec-19 18:57 34.977252 -118.340522 158 10235ft 208kts
30-Dec-19 18:58 34.918529 -118.318933 158 11028ft 240kts
30-Dec-19 18:59 34.854607 -118.295585 159 11145ft 256kts
30-Dec-19 19:00 34.785900 -118.270517 158 11499ft 258kts
30-Dec-19 19:01 34.713656 -118.253241 180 11506ft 272kts
30-Dec-19 19:02 34.637765 -118.251445 161 11499ft 268kts
30-Dec-19 19:03 34.561281 -118.263242 187 11499ft 276kts
30-Dec-19 19:04 34.484619 -118.273805 176 11479ft 273kts
30-Dec-19 19:05 34.408553 -118.272083 174 10793ft 264kts
30-Dec-19 19:06 34.341668 -118.263201 168 9376ft 217kts
30-Dec-19 19:07 34.280206 -118.254065 169 10174ft 231kts
30-Dec-19 19:08 34.210088 -118.250637 173 10382ft 254kts
30-Dec-19 19:09 34.138762 -118.242831 170 11105ft 243kts
30-Dec-19 19:10 34.067447 -118.228831 153 11004ft 260kts
30-Dec-19 19:11 34.005064 -118.182220 150 11001ft 264kts
30-Dec-19 19:12 33.932813 -118.165357 191 10288ft 297kts
30-Dec-19 19:13 33.851613 -118.188789 191 8999ft 294kts
30-Dec-19 19:14 33.774474 -118.210031 191 9002ft 275kts
30-Dec-19 19:15 33.700510 -118.195857 161 8057ft 267kts
30-Dec-19 19:16 33.628900 -118.170153 161 6530ft 263kts
30-Dec-19 19:17 33.558479 -118.144203 161 5009ft 260kts
30-Dec-19 19:18 33.488697 -118.119461 161 3483ft 256kts
30-Dec-19 19:19 33.419982 -118.096549 161 2995ft 250kts
30-Dec-19 19:20 33.394217 -118.047483 35 2984ft 207kts
30-Dec-19 19:21 33.447104 -118.025299 36 3018ft 197kts
30-Dec-19 19:22 33.494867 -117.988394 35 3067ft 203kts
30-Dec-19 19:23 33.541051 -117.953469 26 2398ft 189kts
30-Dec-19 19:24 33.585395 -117.927223 29 1568ft 156kts
30-Dec-19 19:25 33.614196 -117.907607 30 979ft 112kts
30-Dec-19 19:26 33.641776 -117.891477 32 559ft 105kts
30-Dec-19 19:27 33.664044 -117.876278 32 195ft 87kts
30-Dec-19 19:28 33.674893 -117.868646 167 59ft 10kts
30-Dec-19 19:29 33.673061 -117.867285 231 59ft 14kts
30-Dec-19 19:30 33.671922 -117.867395 295 59ft 0kts
30-Dec-19 19:31 33.671922 -117.867395 295 59ft 0kts

Navigation Log

Ident Type
Flight plan parsing failed, navigation log unavailable